EPKL weather

Krasocin Field
Swietokrzyskie, Poland

Public forecast

Using degrees Celsius for public forecast. Weather courtesy of forecast.io.

METAR (pilot weather report)

Closest report is Katowice International Airport, 47.3 nm (87.6 km) WSW. Retrieved 2019/03/25 23:30 UTC (21 minutes ago):

EPKT 252330Z 29007KT 9999 -SHRA FEW006CB BKN007 02/00 Q1017

TAF (pilot weather forecast)

Closest forecast is Katowice International Airport, 47.3 nm (87.6 km) WSW. Retrieved 2019/03/25 18:33 UTC (5 hours ago):

TAF EPKT 251730Z 2518/2618 28010KT 9999 BKN040 TEMPO 2518/2603 4000 SHRA BKN014CB TEMPO 2612/2618 30016G28KT 4000 SHRA BKN013CB